This is the latest recevied weather packets stored in our database for station/object HK4K-15. If no packets are shown the sender has not sent any weather packets the latest 10 day(s).
| Time | Temp. | Humidity | Pressure | Rain* | Wind** | Luminosity | Snow |
|---|---|---|---|---|---|---|---|
| 1788169830 | 17.22° C | 94% | 1016 hPa | 0 mm | - | - | - |
| 1788168809 | 17.78° C | 93% | 1016 hPa | 0 mm | - | - | - |
| 1788167789 | 18.33° C | 92% | 1016 hPa | 0 mm | - | - | - |
| 1788166768 | 18.89° C | 90% | 1016 hPa | 0 mm | - | - | - |
| 1788165748 | 18.89° C | 90% | 1016 hPa | 0 mm | - | - | - |
| 1788164727 | 18.89° C | 90% | 1016 hPa | 0 mm | - | - | - |
| 1788163707 | 18.89° C | 89% | 1015 hPa | 0 mm | - | - | - |
| 1788162687 | 19.44° C | 87% | 1015 hPa | 0 mm | - | - | - |
| 1788161666 | 19.44° C | 87% | 1016 hPa | 0 mm | - | - | - |
| 1788160646 | 19.44° C | 87% | 1016 hPa | 0 mm | - | - | - |
| 1788159625 | 19.44° C | 87% | 1015 hPa | 0 mm | - | - | - |
| 1788158605 | 19.44° C | 87% | 1015 hPa | 0 mm | - | - | - |
| 1788157584 | 19.44° C | 87% | 1016 hPa | 0 mm | - | - | - |
| 1788156564 | 19.44° C | 87% | 1016 hPa | 0 mm | - | - | - |
| 1788155543 | 19.44° C | 87% | 1016 hPa | 0 mm | - | - | - |
| 1788154523 | 19.44° C | 87% | 1016 hPa | 0 mm | - | - | - |
| 1788153502 | 19.44° C | 87% | 1016 hPa | 0 mm | - | - | - |
| 1788152299 | 19.44° C | 86% | 1016 hPa | 0 mm | - | - | - |
| 1788150057 | 19.44° C | 88% | 1017 hPa | 1.02 mm | - | - | - |
| 1788149036 | 18.89° C | 94% | 1017 hPa | 1.02 mm | - | - | - |
| 1788148016 | 19.44° C | 94% | 1017 hPa | 1.27 mm | - | - | - |
| 1788146995 | 20° C | 94% | 1017 hPa | 2.29 mm | - | - | - |
| 1788145975 | 22.22° C | 73% | 1016 hPa | 1.27 mm | - | - | - |
| 1788144955 | 23.33° C | 64% | 1016 hPa | 0.51 mm | - | - | - |
| 1788143934 | 23.33° C | 64% | 1016 hPa | 0.51 mm | - | - | - |
* Rain latest hour (hover to see other rain measurements)
** Current wind speed in m/s (hover to see current wind gust speed)